sensor_id;sensor_type;location;lat;lon;timestamp;temperature;humidity
4874;DHT22;2451;49.970;9.068;2023-08-06T00:01:38;16.20;99.90
4874;DHT22;2451;49.970;9.068;2023-08-06T00:04:03;16.20;99.90
4874;DHT22;2451;49.970;9.068;2023-08-06T00:06:29;16.20;99.90
4874;DHT22;2451;49.970;9.068;2023-08-06T00:08:54;16.20;99.90
4874;DHT22;2451;49.970;9.068;2023-08-06T00:11:20;16.30;99.90
4874;DHT22;2451;49.970;9.068;2023-08-06T00:13:45;16.20;99.90
4874;DHT22;2451;49.970;9.068;2023-08-06T00:16:11;16.20;99.90
4874;DHT22;2451;49.970;9.068;2023-08-06T00:18:37;16.20;99.90
4874;DHT22;2451;49.970;9.068;2023-08-06T00:21:03;16.20;99.90
4874;DHT22;2451;49.970;9.068;2023-08-06T00:23:28;16.20;99.90
4874;DHT22;2451;49.970;9.068;2023-08-06T00:25:54;16.20;99.90
4874;DHT22;2451;49.970;9.068;2023-08-06T00:28:19;16.20;99.90
4874;DHT22;2451;49.970;9.068;2023-08-06T00:30:45;16.20;99.90
4874;DHT22;2451;49.970;9.068;2023-08-06T00:33:10;16.20;99.90
4874;DHT22;2451;49.970;9.068;2023-08-06T00:35:35;16.20;99.90
4874;DHT22;2451;49.970;9.068;2023-08-06T00:38:01;16.10;99.90
4874;DHT22;2451;49.970;9.068;2023-08-06T00:40:26;16.10;99.90
4874;DHT22;2451;49.970;9.068;2023-08-06T00:42:54;16.10;99.90
4874;DHT22;2451;49.970;9.068;2023-08-06T00:45:19;16.20;99.90
4874;DHT22;2451;49.970;9.068;2023-08-06T00:47:45;16.10;99.90
4874;DHT22;2451;49.970;9.068;2023-08-06T00:50:11;16.10;99.90
4874;DHT22;2451;49.970;9.068;2023-08-06T00:52:36;16.10;99.90
4874;DHT22;2451;49.970;9.068;2023-08-06T00:55:02;16.10;99.90
4874;DHT22;2451;49.970;9.068;2023-08-06T00:57:28;16.10;99.90
4874;DHT22;2451;49.970;9.068;2023-08-06T00:59:53;16.10;99.90
4874;DHT22;2451;49.970;9.068;2023-08-06T01:02:19;16.10;99.90
4874;DHT22;2451;49.970;9.068;2023-08-06T01:04:44;16.00;99.90
4874;DHT22;2451;49.970;9.068;2023-08-06T01:07:19;16.00;99.90
4874;DHT22;2451;49.970;9.068;2023-08-06T01:09:50;16.00;99.90
4874;DHT22;2451;49.970;9.068;2023-08-06T01:12:29;16.00;99.90
4874;DHT22;2451;49.970;9.068;2023-08-06T01:15:07;16.00;99.90
4874;DHT22;2451;49.970;9.068;2023-08-06T01:17:36;16.00;99.90
4874;DHT22;2451;49.970;9.068;2023-08-06T01:20:01;15.90;99.90
4874;DHT22;2451;49.970;9.068;2023-08-06T01:22:27;15.90;99.90
4874;DHT22;2451;49.970;9.068;2023-08-06T01:24:52;15.90;99.90
4874;DHT22;2451;49.970;9.068;2023-08-06T01:27:23;15.90;99.90
4874;DHT22;2451;49.970;9.068;2023-08-06T01:29:55;15.90;99.90
4874;DHT22;2451;49.970;9.068;2023-08-06T01:32:21;15.90;99.90
4874;DHT22;2451;49.970;9.068;2023-08-06T01:34:47;15.90;99.90
4874;DHT22;2451;49.970;9.068;2023-08-06T01:37:14;15.90;99.90
4874;DHT22;2451;49.970;9.068;2023-08-06T01:39:40;15.90;99.90
4874;DHT22;2451;49.970;9.068;2023-08-06T01:42:05;15.90;99.90
4874;DHT22;2451;49.970;9.068;2023-08-06T01:44:31;15.90;99.90
4874;DHT22;2451;49.970;9.068;2023-08-06T01:46:57;15.90;99.90
4874;DHT22;2451;49.970;9.068;2023-08-06T01:49:22;16.00;99.90
4874;DHT22;2451;49.970;9.068;2023-08-06T01:51:47;16.00;99.90
4874;DHT22;2451;49.970;9.068;2023-08-06T01:54:14;16.00;99.90
4874;DHT22;2451;49.970;9.068;2023-08-06T01:56:39;16.00;99.90
4874;DHT22;2451;49.970;9.068;2023-08-06T01:59:05;16.00;99.90
4874;DHT22;2451;49.970;9.068;2023-08-06T02:01:30;16.00;99.90
4874;DHT22;2451;49.970;9.068;2023-08-06T02:03:56;16.00;99.90
4874;DHT22;2451;49.970;9.068;2023-08-06T02:06:21;16.00;99.90
4874;DHT22;2451;49.970;9.068;2023-08-06T02:08:46;16.00;99.90
4874;DHT22;2451;49.970;9.068;2023-08-06T02:11:12;16.00;99.90
4874;DHT22;2451;49.970;9.068;2023-08-06T02:13:37;15.90;99.90
4874;DHT22;2451;49.970;9.068;2023-08-06T02:16:03;15.90;99.90
4874;DHT22;2451;49.970;9.068;2023-08-06T02:18:28;15.90;99.90
4874;DHT22;2451;49.970;9.068;2023-08-06T02:20:57;15.90;99.90
4874;DHT22;2451;49.970;9.068;2023-08-06T02:23:22;15.90;99.90
4874;DHT22;2451;49.970;9.068;2023-08-06T02:25:48;15.90;99.90
4874;DHT22;2451;49.970;9.068;2023-08-06T02:28:13;15.80;99.90
4874;DHT22;2451;49.970;9.068;2023-08-06T02:30:39;15.90;99.90
4874;DHT22;2451;49.970;9.068;2023-08-06T02:33:04;15.80;99.90
4874;DHT22;2451;49.970;9.068;2023-08-06T02:35:30;15.80;99.90
4874;DHT22;2451;49.970;9.068;2023-08-06T02:37:55;15.90;99.90
4874;DHT22;2451;49.970;9.068;2023-08-06T02:40:21;15.90;99.90
4874;DHT22;2451;49.970;9.068;2023-08-06T02:42:46;15.80;99.90
4874;DHT22;2451;49.970;9.068;2023-08-06T02:45:12;15.80;99.90
4874;DHT22;2451;49.970;9.068;2023-08-06T02:47:37;15.80;99.90
4874;DHT22;2451;49.970;9.068;2023-08-06T02:50:03;15.80;99.90
4874;DHT22;2451;49.970;9.068;2023-08-06T02:52:28;15.80;99.90
4874;DHT22;2451;49.970;9.068;2023-08-06T02:54:53;15.90;99.90
4874;DHT22;2451;49.970;9.068;2023-08-06T02:57:19;15.90;99.90
4874;DHT22;2451;49.970;9.068;2023-08-06T02:59:44;15.90;99.90
4874;DHT22;2451;49.970;9.068;2023-08-06T03:02:10;15.90;99.90
4874;DHT22;2451;49.970;9.068;2023-08-06T03:04:35;15.90;99.90
4874;DHT22;2451;49.970;9.068;2023-08-06T03:07:01;15.90;99.90
4874;DHT22;2451;49.970;9.068;2023-08-06T03:09:26;15.90;99.90
4874;DHT22;2451;49.970;9.068;2023-08-06T03:11:52;15.90;99.90
4874;DHT22;2451;49.970;9.068;2023-08-06T03:14:17;15.90;99.90
4874;DHT22;2451;49.970;9.068;2023-08-06T03:16:43;15.90;99.90
4874;DHT22;2451;49.970;9.068;2023-08-06T03:19:08;15.90;99.90
4874;DHT22;2451;49.970;9.068;2023-08-06T03:21:33;15.80;99.90
4874;DHT22;2451;49.970;9.068;2023-08-06T03:23:59;15.80;99.90
4874;DHT22;2451;49.970;9.068;2023-08-06T03:26:24;15.90;99.90
4874;DHT22;2451;49.970;9.068;2023-08-06T03:28:50;15.80;99.90
4874;DHT22;2451;49.970;9.068;2023-08-06T03:31:15;15.80;99.90
4874;DHT22;2451;49.970;9.068;2023-08-06T03:33:41;15.90;99.90
4874;DHT22;2451;49.970;9.068;2023-08-06T03:36:06;15.80;99.90
4874;DHT22;2451;49.970;9.068;2023-08-06T03:38:31;15.80;99.90
4874;DHT22;2451;49.970;9.068;2023-08-06T03:40:57;15.80;99.90
4874;DHT22;2451;49.970;9.068;2023-08-06T03:43:22;15.80;99.90
4874;DHT22;2451;49.970;9.068;2023-08-06T03:45:48;15.70;99.90
4874;DHT22;2451;49.970;9.068;2023-08-06T03:48:13;15.70;99.90
4874;DHT22;2451;49.970;9.068;2023-08-06T03:50:39;15.70;99.90
4874;DHT22;2451;49.970;9.068;2023-08-06T03:53:04;15.70;99.90
4874;DHT22;2451;49.970;9.068;2023-08-06T03:55:30;15.70;99.90
4874;DHT22;2451;49.970;9.068;2023-08-06T03:57:55;15.70;99.90
4874;DHT22;2451;49.970;9.068;2023-08-06T04:00:20;15.60;99.90
4874;DHT22;2451;49.970;9.068;2023-08-06T04:02:46;15.60;99.90
4874;DHT22;2451;49.970;9.068;2023-08-06T04:05:11;15.60;99.90
4874;DHT22;2451;49.970;9.068;2023-08-06T04:07:37;15.60;99.90
4874;DHT22;2451;49.970;9.068;2023-08-06T04:10:03;15.60;99.90
4874;DHT22;2451;49.970;9.068;2023-08-06T04:12:29;15.60;99.90
4874;DHT22;2451;49.970;9.068;2023-08-06T04:14:56;15.60;99.90
4874;DHT22;2451;49.970;9.068;2023-08-06T04:17:22;15.60;99.90
4874;DHT22;2451;49.970;9.068;2023-08-06T04:19:48;15.60;99.90
4874;DHT22;2451;49.970;9.068;2023-08-06T04:22:14;15.70;99.90
4874;DHT22;2451;49.970;9.068;2023-08-06T04:24:40;15.70;99.90
4874;DHT22;2451;49.970;9.068;2023-08-06T04:27:05;15.70;99.90
4874;DHT22;2451;49.970;9.068;2023-08-06T04:29:30;15.70;99.90
4874;DHT22;2451;49.970;9.068;2023-08-06T04:31:56;15.70;99.90
4874;DHT22;2451;49.970;9.068;2023-08-06T04:34:21;15.70;99.90
4874;DHT22;2451;49.970;9.068;2023-08-06T04:36:47;15.70;99.90
4874;DHT22;2451;49.970;9.068;2023-08-06T04:39:12;15.70;99.90
4874;DHT22;2451;49.970;9.068;2023-08-06T04:41:38;15.70;99.90
4874;DHT22;2451;49.970;9.068;2023-08-06T04:44:03;15.70;99.90
4874;DHT22;2451;49.970;9.068;2023-08-06T04:46:29;15.70;99.90
4874;DHT22;2451;49.970;9.068;2023-08-06T04:48:54;15.70;99.90
4874;DHT22;2451;49.970;9.068;2023-08-06T04:51:20;15.80;99.90
4874;DHT22;2451;49.970;9.068;2023-08-06T04:53:45;15.80;99.90
4874;DHT22;2451;49.970;9.068;2023-08-06T04:56:11;15.90;99.90
4874;DHT22;2451;49.970;9.068;2023-08-06T04:58:36;15.90;99.90
4874;DHT22;2451;49.970;9.068;2023-08-06T05:01:02;16.00;99.90
4874;DHT22;2451;49.970;9.068;2023-08-06T05:03:27;15.90;99.90
4874;DHT22;2451;49.970;9.068;2023-08-06T05:05:52;15.80;99.90
4874;DHT22;2451;49.970;9.068;2023-08-06T05:08:18;15.80;99.90
4874;DHT22;2451;49.970;9.068;2023-08-06T05:10:44;15.80;99.90
4874;DHT22;2451;49.970;9.068;2023-08-06T05:13:10;15.80;99.90
4874;DHT22;2451;49.970;9.068;2023-08-06T05:15:35;15.70;99.90
4874;DHT22;2451;49.970;9.068;2023-08-06T05:18:01;15.80;99.90
4874;DHT22;2451;49.970;9.068;2023-08-06T05:20:26;15.80;99.90
4874;DHT22;2451;49.970;9.068;2023-08-06T05:22:52;15.80;99.90
4874;DHT22;2451;49.970;9.068;2023-08-06T05:25:17;15.80;99.90
4874;DHT22;2451;49.970;9.068;2023-08-06T05:27:43;15.80;99.90
4874;DHT22;2451;49.970;9.068;2023-08-06T05:30:08;15.80;99.90
4874;DHT22;2451;49.970;9.068;2023-08-06T05:32:34;15.80;99.90
4874;DHT22;2451;49.970;9.068;2023-08-06T05:34:59;15.80;99.90
4874;DHT22;2451;49.970;9.068;2023-08-06T05:37:25;15.70;99.90
4874;DHT22;2451;49.970;9.068;2023-08-06T05:39:50;15.80;99.90
4874;DHT22;2451;49.970;9.068;2023-08-06T05:42:16;15.80;99.90
4874;DHT22;2451;49.970;9.068;2023-08-06T05:44:41;15.80;99.90
4874;DHT22;2451;49.970;9.068;2023-08-06T05:47:06;15.80;99.90
4874;DHT22;2451;49.970;9.068;2023-08-06T05:49:32;15.80;99.90
4874;DHT22;2451;49.970;9.068;2023-08-06T05:51:57;15.90;99.90
4874;DHT22;2451;49.970;9.068;2023-08-06T05:54:23;15.90;99.90
4874;DHT22;2451;49.970;9.068;2023-08-06T05:56:48;16.00;99.90
4874;DHT22;2451;49.970;9.068;2023-08-06T05:59:14;16.10;99.90
4874;DHT22;2451;49.970;9.068;2023-08-06T06:01:39;16.10;99.90
4874;DHT22;2451;49.970;9.068;2023-08-06T06:04:04;16.20;99.90
4874;DHT22;2451;49.970;9.068;2023-08-06T06:06:30;16.20;99.90
4874;DHT22;2451;49.970;9.068;2023-08-06T06:08:56;16.20;99.90
4874;DHT22;2451;49.970;9.068;2023-08-06T06:11:21;16.20;99.90
4874;DHT22;2451;49.970;9.068;2023-08-06T06:13:49;16.20;99.90
4874;DHT22;2451;49.970;9.068;2023-08-06T06:16:14;16.20;99.90
4874;DHT22;2451;49.970;9.068;2023-08-06T06:18:40;16.20;99.90
4874;DHT22;2451;49.970;9.068;2023-08-06T06:21:05;16.10;99.90
4874;DHT22;2451;49.970;9.068;2023-08-06T06:23:31;16.10;99.90
4874;DHT22;2451;49.970;9.068;2023-08-06T06:25:56;16.10;99.90
4874;DHT22;2451;49.970;9.068;2023-08-06T06:28:22;16.00;99.90
4874;DHT22;2451;49.970;9.068;2023-08-06T06:30:47;16.00;99.90
4874;DHT22;2451;49.970;9.068;2023-08-06T06:33:13;15.90;99.90
4874;DHT22;2451;49.970;9.068;2023-08-06T06:35:38;15.90;99.90
4874;DHT22;2451;49.970;9.068;2023-08-06T06:38:04;15.90;99.90
4874;DHT22;2451;49.970;9.068;2023-08-06T06:40:29;15.90;99.90
4874;DHT22;2451;49.970;9.068;2023-08-06T06:42:54;15.90;99.90
4874;DHT22;2451;49.970;9.068;2023-08-06T06:45:20;16.00;99.90
4874;DHT22;2451;49.970;9.068;2023-08-06T06:47:45;15.90;99.90
4874;DHT22;2451;49.970;9.068;2023-08-06T06:50:11;15.90;99.90
4874;DHT22;2451;49.970;9.068;2023-08-06T06:52:36;15.80;99.90
4874;DHT22;2451;49.970;9.068;2023-08-06T06:55:02;15.80;99.90
4874;DHT22;2451;49.970;9.068;2023-08-06T06:57:28;15.90;99.90
4874;DHT22;2451;49.970;9.068;2023-08-06T06:59:53;16.00;99.90
4874;DHT22;2451;49.970;9.068;2023-08-06T07:02:18;16.10;99.90
4874;DHT22;2451;49.970;9.068;2023-08-06T07:04:44;16.20;99.90
4874;DHT22;2451;49.970;9.068;2023-08-06T07:07:09;16.30;99.90
4874;DHT22;2451;49.970;9.068;2023-08-06T07:09:35;16.30;99.90
4874;DHT22;2451;49.970;9.068;2023-08-06T07:12:01;16.40;99.90
4874;DHT22;2451;49.970;9.068;2023-08-06T07:14:28;16.40;99.90
4874;DHT22;2451;49.970;9.068;2023-08-06T07:16:53;16.50;99.90
4874;DHT22;2451;49.970;9.068;2023-08-06T07:19:19;16.50;99.90
4874;DHT22;2451;49.970;9.068;2023-08-06T07:21:44;16.50;99.90
4874;DHT22;2451;49.970;9.068;2023-08-06T07:24:10;16.60;99.90
4874;DHT22;2451;49.970;9.068;2023-08-06T07:26:37;16.60;99.90
4874;DHT22;2451;49.970;9.068;2023-08-06T07:29:02;16.70;99.90
4874;DHT22;2451;49.970;9.068;2023-08-06T07:31:28;16.70;99.90
4874;DHT22;2451;49.970;9.068;2023-08-06T07:33:53;16.70;99.90
4874;DHT22;2451;49.970;9.068;2023-08-06T07:36:19;16.60;99.90
4874;DHT22;2451;49.970;9.068;2023-08-06T07:38:44;16.60;99.90
4874;DHT22;2451;49.970;9.068;2023-08-06T07:41:10;16.70;99.90
4874;DHT22;2451;49.970;9.068;2023-08-06T07:43:35;16.70;99.90
4874;DHT22;2451;49.970;9.068;2023-08-06T07:46:01;16.90;99.90
4874;DHT22;2451;49.970;9.068;2023-08-06T07:48:27;16.90;99.90
4874;DHT22;2451;49.970;9.068;2023-08-06T07:50:53;16.90;99.90
4874;DHT22;2451;49.970;9.068;2023-08-06T07:53:22;16.90;99.90
4874;DHT22;2451;49.970;9.068;2023-08-06T07:55:51;16.90;99.90
4874;DHT22;2451;49.970;9.068;2023-08-06T07:58:17;16.90;99.90
4874;DHT22;2451;49.970;9.068;2023-08-06T08:00:43;16.80;99.90
4874;DHT22;2451;49.970;9.068;2023-08-06T08:03:11;16.70;99.90
4874;DHT22;2451;49.970;9.068;2023-08-06T08:05:37;16.70;99.90
4874;DHT22;2451;49.970;9.068;2023-08-06T08:08:02;16.70;99.90
4874;DHT22;2451;49.970;9.068;2023-08-06T08:10:28;16.70;99.90
4874;DHT22;2451;49.970;9.068;2023-08-06T08:12:53;16.70;99.90
4874;DHT22;2451;49.970;9.068;2023-08-06T08:15:19;16.60;99.90
4874;DHT22;2451;49.970;9.068;2023-08-06T08:17:44;16.60;99.90
4874;DHT22;2451;49.970;9.068;2023-08-06T08:20:10;16.60;99.90
4874;DHT22;2451;49.970;9.068;2023-08-06T08:22:35;16.50;99.90
4874;DHT22;2451;49.970;9.068;2023-08-06T08:25:00;16.50;99.90
4874;DHT22;2451;49.970;9.068;2023-08-06T08:27:26;16.40;99.90
4874;DHT22;2451;49.970;9.068;2023-08-06T08:29:51;16.40;99.90
4874;DHT22;2451;49.970;9.068;2023-08-06T08:32:17;16.50;99.90
4874;DHT22;2451;49.970;9.068;2023-08-06T08:34:42;16.50;99.90
4874;DHT22;2451;49.970;9.068;2023-08-06T08:37:09;16.50;99.90
4874;DHT22;2451;49.970;9.068;2023-08-06T08:39:34;16.60;99.90
4874;DHT22;2451;49.970;9.068;2023-08-06T08:42:00;16.60;99.90
4874;DHT22;2451;49.970;9.068;2023-08-06T08:44:27;16.70;99.90
4874;DHT22;2451;49.970;9.068;2023-08-06T08:46:54;16.80;99.90
4874;DHT22;2451;49.970;9.068;2023-08-06T08:49:20;16.90;99.90
4874;DHT22;2451;49.970;9.068;2023-08-06T08:51:46;17.30;99.90
4874;DHT22;2451;49.970;9.068;2023-08-06T08:54:12;17.60;99.90
4874;DHT22;2451;49.970;9.068;2023-08-06T08:56:38;18.10;99.90
4874;DHT22;2451;49.970;9.068;2023-08-06T08:59:03;18.60;99.90
4874;DHT22;2451;49.970;9.068;2023-08-06T09:01:29;18.80;99.90
4874;DHT22;2451;49.970;9.068;2023-08-06T09:03:55;18.80;99.90
4874;DHT22;2451;49.970;9.068;2023-08-06T09:06:22;18.60;99.90
4874;DHT22;2451;49.970;9.068;2023-08-06T09:08:53;18.60;99.90
4874;DHT22;2451;49.970;9.068;2023-08-06T09:11:20;18.50;99.90
4874;DHT22;2451;49.970;9.068;2023-08-06T09:13:46;18.50;99.90
4874;DHT22;2451;49.970;9.068;2023-08-06T09:16:12;18.50;99.90
4874;DHT22;2451;49.970;9.068;2023-08-06T09:18:38;18.70;99.90
4874;DHT22;2451;49.970;9.068;2023-08-06T09:21:04;18.80;99.90
4874;DHT22;2451;49.970;9.068;2023-08-06T09:23:29;19.10;99.90
4874;DHT22;2451;49.970;9.068;2023-08-06T09:25:56;19.40;99.90
4874;DHT22;2451;49.970;9.068;2023-08-06T09:28:22;19.70;99.90
4874;DHT22;2451;49.970;9.068;2023-08-06T09:30:49;20.20;99.90
4874;DHT22;2451;49.970;9.068;2023-08-06T09:33:18;20.40;99.90
4874;DHT22;2451;49.970;9.068;2023-08-06T09:35:45;20.80;99.90
4874;DHT22;2451;49.970;9.068;2023-08-06T09:38:10;21.20;99.90
4874;DHT22;2451;49.970;9.068;2023-08-06T09:40:37;21.30;99.90
4874;DHT22;2451;49.970;9.068;2023-08-06T09:43:02;21.40;99.90
4874;DHT22;2451;49.970;9.068;2023-08-06T09:45:30;21.10;99.90
4874;DHT22;2451;49.970;9.068;2023-08-06T09:47:56;20.90;99.90
4874;DHT22;2451;49.970;9.068;2023-08-06T09:50:22;20.80;99.90
4874;DHT22;2451;49.970;9.068;2023-08-06T09:52:48;20.90;99.90
4874;DHT22;2451;49.970;9.068;2023-08-06T09:55:15;20.60;99.90
4874;DHT22;2451;49.970;9.068;2023-08-06T09:57:41;20.60;99.90
4874;DHT22;2451;49.970;9.068;2023-08-06T10:00:08;20.40;99.90
4874;DHT22;2451;49.970;9.068;2023-08-06T10:02:35;20.30;99.90
4874;DHT22;2451;49.970;9.068;2023-08-06T10:05:01;20.50;99.90
4874;DHT22;2451;49.970;9.068;2023-08-06T10:07:26;20.50;99.90
4874;DHT22;2451;49.970;9.068;2023-08-06T10:09:52;20.80;99.90
4874;DHT22;2451;49.970;9.068;2023-08-06T10:12:18;21.30;99.90
4874;DHT22;2451;49.970;9.068;2023-08-06T10:14:45;21.40;99.90
4874;DHT22;2451;49.970;9.068;2023-08-06T10:17:10;21.50;99.90
4874;DHT22;2451;49.970;9.068;2023-08-06T10:19:36;21.10;99.90
4874;DHT22;2451;49.970;9.068;2023-08-06T10:22:09;20.60;99.90
4874;DHT22;2451;49.970;9.068;2023-08-06T10:24:52;20.40;99.90
4874;DHT22;2451;49.970;9.068;2023-08-06T10:27:31;20.10;99.90
4874;DHT22;2451;49.970;9.068;2023-08-06T10:32:47;20.10;99.90
4874;DHT22;2451;49.970;9.068;2023-08-06T10:38:09;21.10;99.90
4874;DHT22;2451;49.970;9.068;2023-08-06T10:40:36;21.10;99.90
4874;DHT22;2451;49.970;9.068;2023-08-06T10:43:02;20.90;99.90
4874;DHT22;2451;49.970;9.068;2023-08-06T10:45:28;20.80;99.90
4874;DHT22;2451;49.970;9.068;2023-08-06T10:47:55;20.70;99.90
4874;DHT22;2451;49.970;9.068;2023-08-06T10:50:22;20.40;99.90
4874;DHT22;2451;49.970;9.068;2023-08-06T10:52:48;20.00;99.90
4874;DHT22;2451;49.970;9.068;2023-08-06T10:55:14;19.40;99.90
4874;DHT22;2451;49.970;9.068;2023-08-06T10:57:47;19.20;99.90
4874;DHT22;2451;49.970;9.068;2023-08-06T11:00:12;18.60;99.90
4874;DHT22;2451;49.970;9.068;2023-08-06T11:02:39;18.30;99.90
4874;DHT22;2451;49.970;9.068;2023-08-06T11:05:05;18.00;99.90
4874;DHT22;2451;49.970;9.068;2023-08-06T11:07:30;17.90;99.90
4874;DHT22;2451;49.970;9.068;2023-08-06T11:10:03;17.70;99.90
4874;DHT22;2451;49.970;9.068;2023-08-06T11:12:29;17.50;99.90
4874;DHT22;2451;49.970;9.068;2023-08-06T11:14:54;17.50;99.90
4874;DHT22;2451;49.970;9.068;2023-08-06T11:17:21;17.40;99.90
4874;DHT22;2451;49.970;9.068;2023-08-06T11:19:46;17.40;99.90
4874;DHT22;2451;49.970;9.068;2023-08-06T11:22:12;17.40;99.90
4874;DHT22;2451;49.970;9.068;2023-08-06T11:24:37;17.40;99.90
4874;DHT22;2451;49.970;9.068;2023-08-06T11:27:10;17.50;99.90
4874;DHT22;2451;49.970;9.068;2023-08-06T11:29:40;17.60;99.90
4874;DHT22;2451;49.970;9.068;2023-08-06T11:32:05;17.80;99.90
4874;DHT22;2451;49.970;9.068;2023-08-06T11:34:31;18.00;99.90
4874;DHT22;2451;49.970;9.068;2023-08-06T11:36:57;18.10;99.90
4874;DHT22;2451;49.970;9.068;2023-08-06T11:39:22;18.20;99.90
4874;DHT22;2451;49.970;9.068;2023-08-06T11:41:48;18.40;99.90
4874;DHT22;2451;49.970;9.068;2023-08-06T11:44:13;18.40;99.90
4874;DHT22;2451;49.970;9.068;2023-08-06T11:46:52;18.30;99.90
4874;DHT22;2451;49.970;9.068;2023-08-06T11:49:17;18.30;99.90
4874;DHT22;2451;49.970;9.068;2023-08-06T11:51:47;18.30;99.90
4874;DHT22;2451;49.970;9.068;2023-08-06T11:54:12;18.10;99.90
4874;DHT22;2451;49.970;9.068;2023-08-06T11:56:38;18.10;99.90
4874;DHT22;2451;49.970;9.068;2023-08-06T11:59:03;18.10;99.90
4874;DHT22;2451;49.970;9.068;2023-08-06T12:01:29;18.20;99.90
4874;DHT22;2451;49.970;9.068;2023-08-06T12:04:00;18.30;99.90
4874;DHT22;2451;49.970;9.068;2023-08-06T12:06:29;18.40;99.90
4874;DHT22;2451;49.970;9.068;2023-08-06T12:08:54;18.30;99.90
4874;DHT22;2451;49.970;9.068;2023-08-06T12:11:23;17.90;99.90
4874;DHT22;2451;49.970;9.068;2023-08-06T12:13:51;17.50;99.90
4874;DHT22;2451;49.970;9.068;2023-08-06T12:16:17;17.30;99.90
4874;DHT22;2451;49.970;9.068;2023-08-06T12:18:44;17.30;99.90
4874;DHT22;2451;49.970;9.068;2023-08-06T12:21:09;17.20;99.90
4874;DHT22;2451;49.970;9.068;2023-08-06T12:23:35;17.20;99.90
4874;DHT22;2451;49.970;9.068;2023-08-06T12:26:01;17.10;99.90
4874;DHT22;2451;49.970;9.068;2023-08-06T12:28:26;17.00;99.90
4874;DHT22;2451;49.970;9.068;2023-08-06T12:30:52;16.80;99.90
4874;DHT22;2451;49.970;9.068;2023-08-06T12:33:20;16.70;99.90
4874;DHT22;2451;49.970;9.068;2023-08-06T12:35:46;16.60;99.90
4874;DHT22;2451;49.970;9.068;2023-08-06T12:38:12;16.60;99.90
4874;DHT22;2451;49.970;9.068;2023-08-06T12:40:38;16.50;99.90
4874;DHT22;2451;49.970;9.068;2023-08-06T12:43:04;16.50;99.90
4874;DHT22;2451;49.970;9.068;2023-08-06T12:45:29;16.40;99.90
4874;DHT22;2451;49.970;9.068;2023-08-06T12:47:55;16.40;99.90
4874;DHT22;2451;49.970;9.068;2023-08-06T12:50:20;16.30;99.90
4874;DHT22;2451;49.970;9.068;2023-08-06T12:52:46;16.30;99.90
4874;DHT22;2451;49.970;9.068;2023-08-06T12:55:11;16.20;99.90
4874;DHT22;2451;49.970;9.068;2023-08-06T12:57:37;16.20;99.90
4874;DHT22;2451;49.970;9.068;2023-08-06T13:00:02;16.10;99.90
4874;DHT22;2451;49.970;9.068;2023-08-06T13:02:28;16.10;99.90
4874;DHT22;2451;49.970;9.068;2023-08-06T13:04:55;16.00;99.90
4874;DHT22;2451;49.970;9.068;2023-08-06T13:07:20;15.90;99.90
4874;DHT22;2451;49.970;9.068;2023-08-06T13:09:46;15.80;99.90
4874;DHT22;2451;49.970;9.068;2023-08-06T13:12:11;15.80;99.90
4874;DHT22;2451;49.970;9.068;2023-08-06T13:14:37;15.80;99.90
4874;DHT22;2451;49.970;9.068;2023-08-06T13:17:02;15.70;99.90
4874;DHT22;2451;49.970;9.068;2023-08-06T13:19:31;15.70;99.90
4874;DHT22;2451;49.970;9.068;2023-08-06T13:22:01;15.70;99.90
4874;DHT22;2451;49.970;9.068;2023-08-06T13:24:27;15.70;99.90
4874;DHT22;2451;49.970;9.068;2023-08-06T13:26:53;15.60;99.90
4874;DHT22;2451;49.970;9.068;2023-08-06T13:29:18;15.70;99.90
4874;DHT22;2451;49.970;9.068;2023-08-06T13:31:44;15.70;99.90
4874;DHT22;2451;49.970;9.068;2023-08-06T13:34:09;15.70;99.90
4874;DHT22;2451;49.970;9.068;2023-08-06T13:36:34;15.80;99.90
4874;DHT22;2451;49.970;9.068;2023-08-06T13:39:00;15.70;99.90
4874;DHT22;2451;49.970;9.068;2023-08-06T13:41:25;15.80;99.90
4874;DHT22;2451;49.970;9.068;2023-08-06T13:43:51;15.80;99.90
4874;DHT22;2451;49.970;9.068;2023-08-06T13:46:17;15.70;99.90
4874;DHT22;2451;49.970;9.068;2023-08-06T13:48:45;15.70;99.90
4874;DHT22;2451;49.970;9.068;2023-08-06T13:51:11;15.60;99.90
4874;DHT22;2451;49.970;9.068;2023-08-06T13:53:37;15.50;99.90
4874;DHT22;2451;49.970;9.068;2023-08-06T13:56:03;15.30;99.90
4874;DHT22;2451;49.970;9.068;2023-08-06T13:58:28;15.30;99.90
4874;DHT22;2451;49.970;9.068;2023-08-06T14:00:53;15.30;99.90
4874;DHT22;2451;49.970;9.068;2023-08-06T14:03:20;15.30;99.90
4874;DHT22;2451;49.970;9.068;2023-08-06T14:05:45;15.30;99.90
4874;DHT22;2451;49.970;9.068;2023-08-06T14:08:10;15.30;99.90
4874;DHT22;2451;49.970;9.068;2023-08-06T14:10:36;15.30;99.90
4874;DHT22;2451;49.970;9.068;2023-08-06T14:13:01;15.40;99.90
4874;DHT22;2451;49.970;9.068;2023-08-06T14:15:27;15.40;99.90
4874;DHT22;2451;49.970;9.068;2023-08-06T14:17:52;15.40;99.90
4874;DHT22;2451;49.970;9.068;2023-08-06T14:20:18;15.40;99.90
4874;DHT22;2451;49.970;9.068;2023-08-06T14:22:43;15.30;99.90
4874;DHT22;2451;49.970;9.068;2023-08-06T14:25:09;15.40;99.90
4874;DHT22;2451;49.970;9.068;2023-08-06T14:27:34;15.40;99.90
4874;DHT22;2451;49.970;9.068;2023-08-06T14:30:00;15.40;99.90
4874;DHT22;2451;49.970;9.068;2023-08-06T14:32:25;15.40;99.90
4874;DHT22;2451;49.970;9.068;2023-08-06T14:34:51;15.40;99.90
4874;DHT22;2451;49.970;9.068;2023-08-06T14:37:17;15.50;99.90
4874;DHT22;2451;49.970;9.068;2023-08-06T14:39:42;15.50;99.90
4874;DHT22;2451;49.970;9.068;2023-08-06T14:42:08;15.50;99.90
4874;DHT22;2451;49.970;9.068;2023-08-06T14:44:33;15.50;99.90
4874;DHT22;2451;49.970;9.068;2023-08-06T14:46:59;15.50;99.90
4874;DHT22;2451;49.970;9.068;2023-08-06T14:49:24;15.50;99.90
4874;DHT22;2451;49.970;9.068;2023-08-06T14:51:50;15.50;99.90
4874;DHT22;2451;49.970;9.068;2023-08-06T14:54:15;15.50;99.90
4874;DHT22;2451;49.970;9.068;2023-08-06T14:56:41;15.50;99.90
4874;DHT22;2451;49.970;9.068;2023-08-06T14:59:06;15.50;99.90
4874;DHT22;2451;49.970;9.068;2023-08-06T15:01:32;15.40;99.90
4874;DHT22;2451;49.970;9.068;2023-08-06T15:03:58;15.40;99.90
4874;DHT22;2451;49.970;9.068;2023-08-06T15:06:23;15.30;99.90
4874;DHT22;2451;49.970;9.068;2023-08-06T15:08:49;15.30;99.90
4874;DHT22;2451;49.970;9.068;2023-08-06T15:11:14;15.30;99.90
4874;DHT22;2451;49.970;9.068;2023-08-06T15:13:40;15.30;99.90
4874;DHT22;2451;49.970;9.068;2023-08-06T15:16:05;15.30;99.90
4874;DHT22;2451;49.970;9.068;2023-08-06T15:18:31;15.20;99.90
4874;DHT22;2451;49.970;9.068;2023-08-06T15:20:56;15.20;99.90
4874;DHT22;2451;49.970;9.068;2023-08-06T15:23:23;15.30;99.90
4874;DHT22;2451;49.970;9.068;2023-08-06T15:25:48;15.30;99.90
4874;DHT22;2451;49.970;9.068;2023-08-06T15:28:14;15.20;99.90
4874;DHT22;2451;49.970;9.068;2023-08-06T15:30:39;15.20;99.90
4874;DHT22;2451;49.970;9.068;2023-08-06T15:33:06;15.20;99.90
4874;DHT22;2451;49.970;9.068;2023-08-06T15:35:31;15.20;99.90
4874;DHT22;2451;49.970;9.068;2023-08-06T15:37:57;15.10;99.90
4874;DHT22;2451;49.970;9.068;2023-08-06T15:40:22;15.10;99.90
4874;DHT22;2451;49.970;9.068;2023-08-06T15:42:48;15.10;99.90
4874;DHT22;2451;49.970;9.068;2023-08-06T15:45:14;15.10;99.90
4874;DHT22;2451;49.970;9.068;2023-08-06T15:47:39;15.00;99.90
4874;DHT22;2451;49.970;9.068;2023-08-06T15:50:08;15.00;99.90
4874;DHT22;2451;49.970;9.068;2023-08-06T15:52:34;15.10;99.90
4874;DHT22;2451;49.970;9.068;2023-08-06T15:55:01;15.10;99.90
4874;DHT22;2451;49.970;9.068;2023-08-06T15:57:31;15.00;99.90
4874;DHT22;2451;49.970;9.068;2023-08-06T15:59:57;15.00;99.90